createdAt,value
2023-03-29T00:01:07.552Z,18.60
2023-03-29T00:04:10.341Z,18.60
2023-03-29T00:07:14.274Z,18.60
2023-03-29T00:10:16.336Z,18.60
2023-03-29T00:13:18.689Z,18.60
2023-03-29T00:16:20.889Z,18.60
2023-03-29T00:19:23.200Z,18.50
2023-03-29T00:22:25.895Z,18.50
2023-03-29T00:25:27.998Z,18.60
2023-03-29T00:28:30.245Z,18.60
2023-03-29T00:31:32.455Z,18.50
2023-03-29T00:34:36.272Z,18.50
2023-03-29T00:37:39.759Z,18.50
2023-03-29T00:40:44.410Z,18.50
2023-03-29T00:44:04.696Z,18.40
2023-03-29T00:47:07.321Z,18.50
2023-03-29T00:50:16.988Z,18.40
2023-03-29T00:53:32.150Z,18.50
2023-03-29T00:56:38.758Z,18.50
2023-03-29T00:59:45.220Z,18.40
2023-03-29T01:02:51.203Z,18.40
2023-03-29T01:06:07.715Z,18.40
2023-03-29T01:09:14.729Z,18.40
2023-03-29T01:12:23.176Z,18.30
2023-03-29T01:15:28.312Z,18.20
2023-03-29T01:18:33.778Z,18.20
2023-03-29T01:21:43.814Z,18.20
2023-03-29T01:25:01.461Z,18.10
2023-03-29T01:28:10.104Z,18.20
2023-03-29T01:31:30.227Z,18.10
2023-03-29T01:34:43.859Z,18.10
2023-03-29T01:37:53.026Z,18.10
2023-03-29T01:40:55.148Z,18.10
2023-03-29T01:44:03.502Z,18.10
2023-03-29T01:47:34.278Z,18.10
2023-03-29T01:50:39.475Z,18.10
2023-03-29T01:53:50.310Z,18.00
2023-03-29T01:56:53.312Z,18.10
2023-03-29T01:59:57.918Z,18.10
2023-03-29T02:03:05.976Z,18.10
2023-03-29T02:06:15.625Z,18.00
2023-03-29T02:09:17.933Z,18.00
2023-03-29T02:12:20.884Z,18.00
2023-03-29T02:15:23.689Z,18.00
2023-03-29T02:18:26.372Z,17.90
2023-03-29T02:21:36.405Z,17.90
2023-03-29T02:24:41.033Z,17.90
2023-03-29T02:27:43.502Z,17.90
2023-03-29T02:30:57.236Z,17.80
2023-03-29T02:34:16.096Z,17.80
2023-03-29T02:37:20.259Z,17.80
2023-03-29T02:40:24.621Z,17.80
2023-03-29T02:43:32.588Z,17.80
2023-03-29T02:46:35.175Z,17.80
2023-03-29T02:49:37.262Z,17.70
2023-03-29T02:52:44.959Z,17.60
2023-03-29T02:55:48.784Z,17.60
2023-03-29T02:58:51.038Z,17.50
2023-03-29T03:01:53.735Z,17.50
2023-03-29T03:04:56.015Z,17.50
2023-03-29T03:07:58.610Z,17.50
2023-03-29T03:11:00.921Z,17.50
2023-03-29T03:14:03.164Z,17.40
2023-03-29T03:17:05.203Z,17.40
2023-03-29T03:20:13.320Z,17.40
2023-03-29T03:23:15.395Z,17.40
2023-03-29T03:26:18.292Z,17.40
2023-03-29T03:29:20.439Z,17.30
2023-03-29T03:32:22.948Z,17.20
2023-03-29T03:35:25.302Z,17.10
2023-03-29T03:38:29.508Z,17.10
2023-03-29T03:41:32.695Z,17.10
2023-03-29T03:44:34.721Z,17.10
2023-03-29T03:47:37.835Z,17.20
2023-03-29T03:50:40.850Z,17.10
2023-03-29T03:53:42.955Z,17.00
2023-03-29T03:56:47.518Z,16.90
2023-03-29T03:59:49.391Z,16.80
2023-03-29T04:02:54.424Z,16.80
2023-03-29T04:05:56.705Z,16.80
2023-03-29T04:08:59.847Z,16.80
2023-03-29T04:12:01.936Z,16.90
2023-03-29T04:15:04.643Z,16.90
2023-03-29T04:18:08.325Z,16.90
2023-03-29T04:21:12.202Z,16.90
2023-03-29T04:24:14.399Z,16.90
2023-03-29T04:27:16.641Z,16.80
2023-03-29T04:30:18.797Z,16.80
2023-03-29T04:33:21.376Z,16.80
2023-03-29T04:36:23.607Z,16.80
2023-03-29T04:39:33.137Z,16.80
2023-03-29T04:42:36.209Z,16.70
2023-03-29T04:45:38.552Z,16.70
2023-03-29T04:48:40.629Z,16.60
2023-03-29T04:51:44.197Z,16.70
2023-03-29T04:54:46.378Z,16.60
2023-03-29T04:57:48.427Z,16.60
2023-03-29T05:00:51.672Z,16.60
2023-03-29T05:03:55.156Z,16.50
2023-03-29T05:06:57.912Z,16.50
2023-03-29T05:10:00.024Z,16.50
2023-03-29T05:13:06.202Z,16.50
2023-03-29T05:16:08.946Z,16.50
2023-03-29T05:19:11.557Z,16.60
2023-03-29T05:22:14.281Z,16.60
2023-03-29T05:25:17.659Z,16.50
2023-03-29T05:28:19.944Z,16.50
2023-03-29T05:31:22.982Z,16.50
2023-03-29T05:34:25.743Z,16.40
2023-03-29T05:37:28.647Z,16.40
2023-03-29T05:40:32.171Z,16.30
2023-03-29T05:43:35.050Z,16.30
2023-03-29T05:46:37.036Z,16.30
2023-03-29T05:49:39.355Z,16.20
2023-03-29T05:52:41.435Z,16.20
2023-03-29T05:55:44.335Z,16.20
2023-03-29T05:58:46.853Z,16.20
2023-03-29T06:01:48.890Z,16.20
2023-03-29T06:04:51.983Z,16.10
2023-03-29T06:07:54.040Z,16.10
2023-03-29T06:11:05.378Z,16.10
2023-03-29T06:14:08.658Z,16.10
2023-03-29T06:17:10.914Z,16.00
2023-03-29T06:20:13.801Z,16.00
2023-03-29T06:23:15.854Z,15.90
2023-03-29T06:26:20.145Z,15.90
2023-03-29T06:29:22.323Z,15.90
2023-03-29T06:32:24.470Z,15.90
2023-03-29T06:35:27.174Z,16.00
2023-03-29T06:38:29.304Z,16.10
2023-03-29T06:41:32.675Z,16.20
2023-03-29T06:44:34.796Z,16.20
2023-03-29T06:47:36.900Z,16.30
2023-03-29T06:50:39.001Z,16.50
2023-03-29T06:53:41.581Z,16.70
2023-03-29T06:56:43.886Z,16.90
2023-03-29T06:59:46.683Z,17.30
2023-03-29T07:02:49.663Z,17.70
2023-03-29T07:05:53.127Z,18.00
2023-03-29T07:08:59.708Z,18.40
2023-03-29T07:12:01.785Z,18.80
2023-03-29T07:15:04.712Z,19.10
2023-03-29T07:18:08.383Z,19.80
2023-03-29T07:21:12.433Z,20.40
2023-03-29T07:24:14.691Z,20.80
2023-03-29T07:27:23.820Z,21.20
2023-03-29T07:30:31.012Z,21.70
2023-03-29T07:33:34.785Z,22.30
2023-03-29T07:36:38.697Z,22.90
2023-03-29T07:39:40.854Z,23.30
2023-03-29T07:42:44.205Z,23.80
2023-03-29T07:45:46.858Z,24.10
2023-03-29T07:48:48.924Z,24.60
2023-03-29T07:51:55.117Z,25.00
2023-03-29T07:54:57.583Z,25.50
2023-03-29T07:57:59.856Z,25.90
2023-03-29T08:01:02.081Z,26.30
2023-03-29T08:04:04.970Z,26.70
2023-03-29T08:07:07.244Z,27.50
2023-03-29T08:10:17.631Z,28.00
2023-03-29T08:13:19.760Z,27.90
2023-03-29T08:16:21.879Z,28.10
2023-03-29T08:19:23.935Z,27.20
2023-03-29T08:22:26.026Z,28.00
2023-03-29T08:25:28.026Z,28.80
2023-03-29T08:28:30.985Z,29.60
2023-03-29T08:31:33.786Z,30.30
2023-03-29T08:34:36.287Z,31.10
2023-03-29T08:37:38.390Z,30.80
2023-03-29T08:40:40.661Z,31.10
2023-03-29T08:44:16.276Z,31.00
2023-03-29T08:47:41.705Z,30.70
2023-03-29T08:50:59.069Z,30.20
2023-03-29T08:54:47.522Z,30.20
2023-03-29T08:57:51.774Z,30.30
2023-03-29T09:00:56.970Z,30.40
2023-03-29T09:04:16.698Z,30.60
2023-03-29T09:07:18.896Z,30.40
2023-03-29T09:10:29.707Z,29.80
2023-03-29T09:13:34.514Z,30.10
2023-03-29T09:16:50.466Z,30.80
2023-03-29T09:20:07.498Z,31.60
2023-03-29T09:23:18.917Z,31.00
2023-03-29T09:26:38.342Z,31.80
2023-03-29T09:29:47.001Z,32.20
2023-03-29T09:33:06.160Z,32.30
2023-03-29T09:36:18.079Z,32.00
2023-03-29T09:39:22.273Z,31.70
2023-03-29T09:42:27.911Z,31.30
2023-03-29T09:45:30.493Z,32.00
2023-03-29T09:48:37.988Z,32.00
2023-03-29T09:51:42.196Z,32.40
2023-03-29T09:54:44.606Z,32.30
2023-03-29T09:57:46.962Z,31.70
2023-03-29T10:00:50.216Z,31.20
2023-03-29T10:03:53.644Z,30.60
2023-03-29T10:06:56.045Z,30.10
2023-03-29T10:09:58.053Z,29.70
2023-03-29T10:13:04.374Z,29.60
2023-03-29T10:16:09.376Z,30.00
2023-03-29T10:19:22.568Z,30.50
2023-03-29T10:22:29.859Z,31.20
2023-03-29T10:25:34.053Z,31.20
2023-03-29T10:28:38.094Z,32.80
2023-03-29T10:31:42.778Z,33.90
2023-03-29T10:34:47.877Z,34.40
2023-03-29T10:37:53.178Z,35.60
2023-03-29T10:41:04.264Z,35.10
2023-03-29T10:44:06.936Z,34.00
2023-03-29T10:47:20.871Z,32.80
2023-03-29T10:50:23.057Z,33.40
2023-03-29T10:53:32.580Z,34.40
2023-03-29T10:56:45.266Z,35.30
2023-03-29T11:00:23.815Z,35.80
2023-03-29T11:03:50.535Z,36.40
2023-03-29T11:07:00.845Z,36.90
2023-03-29T11:10:35.053Z,36.60
2023-03-29T11:13:53.921Z,36.50
2023-03-29T11:17:21.071Z,36.40
2023-03-29T11:20:33.537Z,36.50
2023-03-29T11:24:08.943Z,36.70
2023-03-29T11:27:10.928Z,36.50
2023-03-29T11:30:25.289Z,36.20
2023-03-29T11:33:47.890Z,36.00
2023-03-29T11:36:55.831Z,35.80
2023-03-29T11:40:15.344Z,35.90
2023-03-29T11:43:32.242Z,35.80
2023-03-29T11:46:41.726Z,33.60
2023-03-29T11:50:25.915Z,32.80
2023-03-29T11:53:42.795Z,32.10
2023-03-29T11:56:50.135Z,31.20
2023-03-29T12:00:05.471Z,30.80
2023-03-29T12:03:15.530Z,30.10
2023-03-29T12:06:23.148Z,28.90
2023-03-29T12:09:38.196Z,27.50
2023-03-29T12:12:55.492Z,27.30
2023-03-29T12:16:02.854Z,27.40
2023-03-29T12:19:40.292Z,27.50
2023-03-29T12:22:47.284Z,27.70
2023-03-29T12:26:04.529Z,27.50
2023-03-29T12:29:38.103Z,27.50
2023-03-29T12:33:22.128Z,27.50
2023-03-29T12:37:00.834Z,27.50
2023-03-29T12:40:22.917Z,27.40
2023-03-29T12:43:31.098Z,27.50
2023-03-29T12:46:34.661Z,27.10
2023-03-29T12:49:39.156Z,27.00
2023-03-29T12:52:42.986Z,26.60
2023-03-29T12:55:45.010Z,26.60
2023-03-29T12:59:06.708Z,26.60
2023-03-29T13:02:14.703Z,26.60
2023-03-29T13:05:35.138Z,26.60
2023-03-29T13:08:44.181Z,26.50
2023-03-29T13:12:19.326Z,26.40
2023-03-29T13:15:25.356Z,26.30
2023-03-29T13:18:49.377Z,26.20
2023-03-29T13:22:10.509Z,26.20
2023-03-29T13:25:50.465Z,25.80
2023-03-29T13:29:37.199Z,25.80
2023-03-29T13:32:57.562Z,25.80
2023-03-29T13:36:02.445Z,25.70
2023-03-29T13:39:07.310Z,25.80
2023-03-29T13:42:47.264Z,25.80
2023-03-29T13:45:58.483Z,25.70
2023-03-29T13:49:20.976Z,25.80
2023-03-29T13:52:39.364Z,25.90
2023-03-29T13:55:59.928Z,25.60
2023-03-29T13:59:18.978Z,25.70
2023-03-29T14:03:08.641Z,25.70
2023-03-29T14:06:14.607Z,25.70
2023-03-29T14:09:19.206Z,25.70
2023-03-29T14:12:21.477Z,25.70
2023-03-29T14:15:26.972Z,25.70
2023-03-29T14:18:42.520Z,25.50
2023-03-29T14:21:46.134Z,25.60
2023-03-29T14:24:53.211Z,25.60
2023-03-29T14:27:55.587Z,25.60
2023-03-29T14:30:57.632Z,25.60
2023-03-29T14:34:01.479Z,25.50
2023-03-29T14:37:04.362Z,25.30
2023-03-29T14:40:15.528Z,25.10
2023-03-29T14:43:27.233Z,25.20
2023-03-29T14:46:30.001Z,25.20
2023-03-29T14:49:32.570Z,25.20
2023-03-29T14:52:35.184Z,25.30
2023-03-29T14:55:38.969Z,25.30
2023-03-29T14:58:46.753Z,25.30
2023-03-29T15:01:48.968Z,25.20
2023-03-29T15:05:04.911Z,25.30
2023-03-29T15:08:12.895Z,25.30
2023-03-29T15:11:27.456Z,25.30
2023-03-29T15:14:38.207Z,25.20
2023-03-29T15:17:51.240Z,25.30
2023-03-29T15:20:54.878Z,25.10
2023-03-29T15:23:59.072Z,25.10
2023-03-29T15:27:15.475Z,25.00
2023-03-29T15:30:19.160Z,25.00
2023-03-29T15:33:23.474Z,24.90
2023-03-29T15:36:27.371Z,24.70
2023-03-29T15:39:29.889Z,24.60
2023-03-29T15:42:32.034Z,24.40
2023-03-29T15:45:34.160Z,24.20
2023-03-29T15:48:36.222Z,24.10
2023-03-29T15:51:38.489Z,24.00
2023-03-29T15:54:40.610Z,24.00
2023-03-29T15:57:47.286Z,24.10
2023-03-29T16:00:54.239Z,24.20
2023-03-29T16:03:59.383Z,24.30
2023-03-29T16:07:03.616Z,24.30
2023-03-29T16:10:06.581Z,24.20
2023-03-29T16:13:12.342Z,24.00
2023-03-29T16:16:14.427Z,24.00
2023-03-29T16:19:16.617Z,24.00
2023-03-29T16:22:18.803Z,23.90
2023-03-29T16:25:24.690Z,23.80
2023-03-29T16:28:26.706Z,23.70
2023-03-29T16:31:28.940Z,23.70
2023-03-29T16:34:31.389Z,23.60
2023-03-29T16:37:33.647Z,23.50
2023-03-29T16:40:36.493Z,23.40
2023-03-29T16:43:38.825Z,23.20
2023-03-29T16:46:41.697Z,23.30
2023-03-29T16:49:45.655Z,23.10
2023-03-29T16:52:48.863Z,23.00
2023-03-29T16:55:51.086Z,23.00
2023-03-29T16:58:53.071Z,22.80
2023-03-29T17:01:55.235Z,22.70
2023-03-29T17:04:57.649Z,22.60
2023-03-29T17:07:59.858Z,22.60
2023-03-29T17:11:03.137Z,22.60
2023-03-29T17:14:05.173Z,22.50
2023-03-29T17:17:07.172Z,22.50
2023-03-29T17:20:12.571Z,22.50
2023-03-29T17:23:14.685Z,22.50
2023-03-29T17:26:16.730Z,22.40
2023-03-29T17:29:18.881Z,22.40
2023-03-29T17:32:20.889Z,22.40
2023-03-29T17:35:23.201Z,22.40
2023-03-29T17:38:26.872Z,22.40
2023-03-29T17:41:30.841Z,22.30
2023-03-29T17:44:33.474Z,22.30
2023-03-29T17:47:36.525Z,22.20
2023-03-29T17:50:38.618Z,22.10
2023-03-29T17:53:40.683Z,22.10
2023-03-29T17:56:43.643Z,22.00
2023-03-29T17:59:45.640Z,22.00
2023-03-29T18:02:47.857Z,21.90
2023-03-29T18:05:49.981Z,21.90
2023-03-29T18:08:53.308Z,21.80
2023-03-29T18:11:55.510Z,21.70
2023-03-29T18:14:57.590Z,21.60
2023-03-29T18:17:59.722Z,21.50
2023-03-29T18:21:03.200Z,21.40
2023-03-29T18:24:05.295Z,21.40
2023-03-29T18:27:07.406Z,21.30
2023-03-29T18:30:10.004Z,21.20
2023-03-29T18:33:12.063Z,21.10
2023-03-29T18:36:14.763Z,21.00
2023-03-29T18:39:17.022Z,21.00
2023-03-29T18:42:21.945Z,20.80
2023-03-29T18:45:24.144Z,20.70
2023-03-29T18:48:26.535Z,20.70
2023-03-29T18:51:28.988Z,20.60
2023-03-29T18:54:31.543Z,20.50
2023-03-29T18:57:39.468Z,20.50
2023-03-29T19:00:42.491Z,20.30
2023-03-29T19:03:44.958Z,20.30
2023-03-29T19:06:49.415Z,20.20
2023-03-29T19:09:51.527Z,20.20
2023-03-29T19:12:53.502Z,20.10
2023-03-29T19:15:55.601Z,20.00
2023-03-29T19:18:57.610Z,19.90
2023-03-29T19:22:00.776Z,19.90
2023-03-29T19:25:05.755Z,19.80
2023-03-29T19:28:08.832Z,19.80
2023-03-29T19:31:10.960Z,19.70
2023-03-29T19:34:13.247Z,19.70
2023-03-29T19:37:17.031Z,19.60
2023-03-29T19:40:20.197Z,19.60
2023-03-29T19:43:22.322Z,19.50
2023-03-29T19:46:24.505Z,19.50
2023-03-29T19:49:27.573Z,19.50
2023-03-29T19:52:30.535Z,19.40
2023-03-29T19:55:32.559Z,19.40
2023-03-29T19:58:34.645Z,19.40
2023-03-29T20:01:39.454Z,19.40
2023-03-29T20:04:41.730Z,19.30
2023-03-29T20:07:44.112Z,19.30
2023-03-29T20:10:46.217Z,19.30
2023-03-29T20:13:48.231Z,19.20
2023-03-29T20:16:50.865Z,19.20
2023-03-29T20:19:54.075Z,19.20
2023-03-29T20:22:58.430Z,19.10
2023-03-29T20:26:03.293Z,19.10
2023-03-29T20:29:06.300Z,19.10
2023-03-29T20:32:17.123Z,19.10
2023-03-29T20:35:19.273Z,19.10
2023-03-29T20:38:22.072Z,19.10
2023-03-29T20:41:24.162Z,19.00
2023-03-29T20:44:28.503Z,19.00
2023-03-29T20:47:32.094Z,19.00
2023-03-29T20:50:34.257Z,19.00
2023-03-29T20:53:36.350Z,19.00
2023-03-29T20:56:42.318Z,18.90
2023-03-29T20:59:46.065Z,18.90
2023-03-29T21:02:48.232Z,18.80
2023-03-29T21:05:55.326Z,18.80
2023-03-29T21:08:57.541Z,18.80
2023-03-29T21:11:59.663Z,18.80
2023-03-29T21:15:02.507Z,18.90
2023-03-29T21:18:04.801Z,18.90
2023-03-29T21:21:08.433Z,18.90
2023-03-29T21:24:11.291Z,18.90
2023-03-29T21:27:13.347Z,18.90
2023-03-29T21:30:16.673Z,18.90
2023-03-29T21:33:18.759Z,18.90
2023-03-29T21:36:20.851Z,18.90
2023-03-29T21:39:28.446Z,18.70
2023-03-29T21:42:30.525Z,18.60
2023-03-29T21:45:32.776Z,18.60
2023-03-29T21:48:36.080Z,18.60
2023-03-29T21:51:38.213Z,18.60
2023-03-29T21:54:40.320Z,18.60
2023-03-29T21:57:42.533Z,18.60
2023-03-29T22:00:46.104Z,18.60
2023-03-29T22:03:48.635Z,18.60
2023-03-29T22:06:50.733Z,18.60
2023-03-29T22:09:52.740Z,18.50
2023-03-29T22:12:54.772Z,18.50
2023-03-29T22:16:01.400Z,18.50
2023-03-29T22:19:04.438Z,18.50
2023-03-29T22:22:06.800Z,18.50
2023-03-29T22:25:10.112Z,18.50
2023-03-29T22:28:13.704Z,18.40
2023-03-29T22:31:18.059Z,18.40
2023-03-29T22:34:19.964Z,18.40
2023-03-29T22:37:25.182Z,18.40
2023-03-29T22:40:27.270Z,18.30
2023-03-29T22:43:29.370Z,18.30
2023-03-29T22:46:31.875Z,18.40
2023-03-29T22:49:34.073Z,18.40
2023-03-29T22:52:36.120Z,18.40
2023-03-29T22:55:39.202Z,18.50
2023-03-29T22:58:42.383Z,18.50
2023-03-29T23:01:44.516Z,18.50
2023-03-29T23:04:47.658Z,18.60
2023-03-29T23:07:49.812Z,18.60
2023-03-29T23:10:54.134Z,18.70
2023-03-29T23:13:56.212Z,18.70
2023-03-29T23:16:58.369Z,18.70
2023-03-29T23:20:00.960Z,18.70
2023-03-29T23:23:03.110Z,18.80
2023-03-29T23:26:06.629Z,18.80
2023-03-29T23:29:09.441Z,18.80
2023-03-29T23:32:12.522Z,18.90
2023-03-29T23:35:15.907Z,18.90
2023-03-29T23:38:18.105Z,18.90
2023-03-29T23:41:20.523Z,18.90
2023-03-29T23:44:22.783Z,18.90
2023-03-29T23:47:27.115Z,18.90
2023-03-29T23:50:29.578Z,18.90
2023-03-29T23:53:32.178Z,18.90
2023-03-29T23:56:34.427Z,18.90
2023-03-29T23:59:38.018Z,18.90
